CYCQ

Chetwynd Airport

Chetwynd, British Columbia, Canada
METAR CYCQ 181500Z 23008KT 35SM FEW040 FEW110 BKN210 08/00 A3003 RMK SC1AC1CI5 SLP186
Observed Flight Rules
Oct-18 @ 15:00 UTC (56 minutes ago) Visual Flight Rules
Wind Visibility Clouds
230° at 8 knots 35 miles
  • Few at 4,000' AGL
  • Few at 11,000' AGL
  • Broken at 21,000' AGL
Temperatures Readings
Current 8°C / 46°F
Dewpoint 0°C / 32°F
Humidity 57%
Altimeter 30.03" Hg
Pressure 1018.6 hPa
Elevation 609
METAR CYCQ 181500Z 23008KT 35SM FEW040 FEW110 BKN210 08/00 A3003 RMK SC1AC1CI5 SLP186
Observed Flight Rules
Oct-18 @ 15:00 UTC
(56 minutes ago)
VFR
Wind Visibility
230° at 8 knots 35 miles
Clouds
  • Few at 4,000' AGL
  • Few at 11,000' AGL
  • Broken at 21,000' AGL
Temperature Dewpoint
8°C / 46°F 0°C / 32°F
Humidity Altimeter Pressure
57% 30.03" Hg 1018.6 hPa